createdAt,value
2023-01-29T00:00:22.328Z,76.33
2023-01-29T00:02:49.444Z,76.02
2023-01-29T00:05:27.451Z,76.30
2023-01-29T00:07:56.952Z,76.12
2023-01-29T00:10:25.595Z,76.50
2023-01-29T00:12:52.818Z,76.10
2023-01-29T00:15:21.098Z,76.22
2023-01-29T00:17:47.697Z,76.12
2023-01-29T00:20:14.807Z,76.08
2023-01-29T00:22:42.159Z,76.19
2023-01-29T00:25:09.510Z,76.19
2023-01-29T00:27:36.136Z,76.01
2023-01-29T00:30:19.489Z,76.35
2023-01-29T00:32:46.680Z,76.09
2023-01-29T00:35:13.360Z,76.20
2023-01-29T00:37:40.473Z,76.46
2023-01-29T00:40:07.800Z,76.63
2023-01-29T00:42:53.358Z,76.48
2023-01-29T00:45:20.023Z,76.62
2023-01-29T00:47:47.091Z,76.57
2023-01-29T00:50:14.402Z,76.40
2023-01-29T00:52:41.940Z,76.22
2023-01-29T00:55:10.466Z,76.79
2023-01-29T00:57:38.356Z,76.38
2023-01-29T01:00:09.008Z,76.48
2023-01-29T01:02:54.408Z,76.48
2023-01-29T01:05:21.098Z,76.25
2023-01-29T01:07:50.148Z,76.32
2023-01-29T01:10:22.883Z,76.48
2023-01-29T01:12:58.429Z,76.42
2023-01-29T01:15:31.093Z,76.38
2023-01-29T01:18:00.173Z,76.46
2023-01-29T01:20:29.533Z,76.82
2023-01-29T01:22:56.912Z,76.43
2023-01-29T01:25:25.888Z,76.67
2023-01-29T01:27:57.121Z,76.68
2023-01-29T01:30:25.002Z,76.80
2023-01-29T01:32:52.016Z,76.64
2023-01-29T01:35:18.864Z,76.71
2023-01-29T01:37:46.052Z,76.36
2023-01-29T01:40:18.450Z,76.26
2023-01-29T01:42:49.105Z,76.25
2023-01-29T01:45:27.257Z,76.36
2023-01-29T01:47:57.047Z,76.34
2023-01-29T01:50:34.944Z,76.55
2023-01-29T01:53:08.417Z,76.44
2023-01-29T01:55:38.724Z,76.37
2023-01-29T01:58:16.996Z,76.62
2023-01-29T02:00:43.806Z,76.56
2023-01-29T02:03:30.693Z,76.51
2023-01-29T02:06:18.619Z,76.81
2023-01-29T02:09:17.488Z,76.63
2023-01-29T02:11:44.244Z,76.62
2023-01-29T02:14:11.672Z,76.66
2023-01-29T02:16:39.053Z,76.74
2023-01-29T02:19:16.566Z,76.58
2023-01-29T02:22:25.985Z,76.51
2023-01-29T02:25:22.157Z,76.73
2023-01-29T02:27:48.975Z,76.57
2023-01-29T02:30:18.610Z,76.43
2023-01-29T02:33:27.220Z,76.53
2023-01-29T02:36:12.793Z,76.40
2023-01-29T02:39:23.868Z,76.57
2023-01-29T02:42:11.687Z,76.59
2023-01-29T02:44:43.515Z,76.61
2023-01-29T02:47:21.967Z,76.52
2023-01-29T02:49:55.824Z,76.54
2023-01-29T02:52:39.143Z,76.53
2023-01-29T02:55:21.738Z,76.54
2023-01-29T02:57:51.964Z,76.38
2023-01-29T03:00:26.788Z,76.46
2023-01-29T03:03:20.994Z,76.24
2023-01-29T03:06:06.567Z,76.51
2023-01-29T03:08:43.045Z,76.31
2023-01-29T03:11:14.005Z,76.73
2023-01-29T03:13:40.735Z,76.77
2023-01-29T03:16:26.162Z,76.56
2023-01-29T03:19:05.345Z,76.52
2023-01-29T03:21:59.371Z,76.55
2023-01-29T03:24:50.043Z,76.66
2023-01-29T03:27:40.145Z,76.53
2023-01-29T03:30:30.277Z,76.59
2023-01-29T03:33:02.828Z,76.28
2023-01-29T03:35:37.552Z,76.32
2023-01-29T03:38:07.708Z,76.45
2023-01-29T03:41:00.272Z,76.19
2023-01-29T03:43:35.423Z,76.01
2023-01-29T03:46:23.204Z,75.93
2023-01-29T03:49:17.803Z,76.05
2023-01-29T03:52:28.893Z,76.18
2023-01-29T03:55:27.945Z,76.29
2023-01-29T03:58:16.549Z,75.90
2023-01-29T04:00:54.869Z,76.47
2023-01-29T04:03:37.680Z,76.25
2023-01-29T04:06:17.471Z,76.18
2023-01-29T04:08:54.191Z,76.24
2023-01-29T04:11:23.044Z,76.14
2023-01-29T04:13:50.145Z,75.94
2023-01-29T04:16:27.373Z,75.81
2023-01-29T04:18:54.827Z,76.25
2023-01-29T04:21:21.752Z,76.02
2023-01-29T04:23:48.575Z,76.29
2023-01-29T04:26:27.437Z,76.04
2023-01-29T04:29:32.410Z,76.23
2023-01-29T04:32:13.991Z,76.00
2023-01-29T04:34:56.802Z,76.03
2023-01-29T04:37:38.347Z,75.83
2023-01-29T04:40:24.089Z,75.73
2023-01-29T04:43:05.192Z,76.04
2023-01-29T04:45:55.779Z,75.87
2023-01-29T04:48:34.226Z,75.67
2023-01-29T04:51:01.009Z,75.94
2023-01-29T04:53:58.348Z,75.87
2023-01-29T04:56:38.385Z,76.06
2023-01-29T04:59:11.578Z,75.98
2023-01-29T05:01:39.118Z,75.53
2023-01-29T05:04:11.907Z,75.59
2023-01-29T05:06:40.351Z,75.61
2023-01-29T05:09:08.323Z,75.52
2023-01-29T05:11:37.316Z,75.49
2023-01-29T05:14:08.066Z,75.69
2023-01-29T05:16:43.101Z,75.77
2023-01-29T05:19:13.079Z,75.74
2023-01-29T05:21:42.385Z,75.71
2023-01-29T05:24:12.644Z,75.65
2023-01-29T05:26:58.028Z,75.58
2023-01-29T05:29:24.957Z,75.36
2023-01-29T05:31:51.717Z,75.58
2023-01-29T05:34:18.421Z,75.38
2023-01-29T05:36:45.354Z,75.66
2023-01-29T05:39:11.907Z,75.57
2023-01-29T05:41:38.601Z,75.52
2023-01-29T05:44:05.590Z,75.40
2023-01-29T05:46:32.258Z,75.58
2023-01-29T05:48:59.677Z,75.62
2023-01-29T05:51:26.705Z,75.76
2023-01-29T05:53:53.871Z,76.11
2023-01-29T05:56:20.508Z,75.74
2023-01-29T05:58:47.255Z,75.80
2023-01-29T06:01:22.041Z,75.82
2023-01-29T06:03:49.127Z,76.08
2023-01-29T06:06:16.059Z,75.61
2023-01-29T06:08:42.776Z,75.99
2023-01-29T06:11:12.336Z,75.64
2023-01-29T06:13:39.091Z,75.96
2023-01-29T06:16:06.958Z,75.69
2023-01-29T06:18:33.880Z,75.70
2023-01-29T06:21:02.629Z,75.64
2023-01-29T06:23:29.943Z,75.54
2023-01-29T06:26:05.219Z,75.83
2023-01-29T06:28:31.943Z,75.80
2023-01-29T06:31:08.349Z,75.59
2023-01-29T06:33:43.153Z,75.88
2023-01-29T06:36:10.071Z,75.60
2023-01-29T06:38:36.722Z,75.28
2023-01-29T06:41:16.173Z,75.65
2023-01-29T06:43:45.391Z,75.33
2023-01-29T06:46:12.162Z,75.31
2023-01-29T06:48:38.877Z,75.52
2023-01-29T06:51:07.895Z,75.18
2023-01-29T06:53:36.341Z,75.35
2023-01-29T06:56:03.637Z,75.27
2023-01-29T06:58:30.457Z,75.21
2023-01-29T07:01:12.645Z,75.02
2023-01-29T07:03:42.769Z,75.52
2023-01-29T07:06:09.959Z,75.42
2023-01-29T07:08:38.635Z,75.09
2023-01-29T07:11:06.721Z,75.23
2023-01-29T07:13:33.718Z,75.08
2023-01-29T07:16:05.585Z,74.82
2023-01-29T07:18:32.554Z,74.60
2023-01-29T07:20:59.522Z,74.87
2023-01-29T07:23:26.320Z,74.93
2023-01-29T07:25:53.215Z,74.59
2023-01-29T07:28:23.106Z,74.62
2023-01-29T07:30:50.087Z,74.76
2023-01-29T07:33:16.810Z,74.72
2023-01-29T07:35:43.692Z,74.38
2023-01-29T07:38:12.144Z,74.38
2023-01-29T07:40:38.898Z,74.59
2023-01-29T07:43:07.527Z,74.32
2023-01-29T07:45:36.406Z,74.43
2023-01-29T07:48:05.058Z,74.19
2023-01-29T07:50:33.518Z,74.50
2023-01-29T07:53:00.433Z,74.27
2023-01-29T07:55:27.182Z,74.45
2023-01-29T07:58:01.895Z,74.68
2023-01-29T08:00:29.988Z,74.91
2023-01-29T08:03:05.493Z,75.08
2023-01-29T08:05:32.760Z,74.72
2023-01-29T08:08:06.597Z,75.05
2023-01-29T08:10:36.436Z,74.87
2023-01-29T08:13:04.612Z,74.86
2023-01-29T08:15:32.697Z,74.61
2023-01-29T08:18:01.794Z,74.83
2023-01-29T08:20:28.744Z,74.69
2023-01-29T08:23:13.826Z,74.52
2023-01-29T08:25:40.765Z,74.44
2023-01-29T08:28:07.512Z,74.38
2023-01-29T08:30:35.137Z,74.40
2023-01-29T08:33:03.581Z,74.24
2023-01-29T08:35:30.463Z,74.00
2023-01-29T08:37:59.944Z,74.23
2023-01-29T08:40:27.888Z,73.93
2023-01-29T08:43:01.977Z,73.79
2023-01-29T08:45:30.465Z,73.90
2023-01-29T08:47:57.219Z,73.57
2023-01-29T08:50:23.982Z,73.51
2023-01-29T08:52:50.795Z,73.67
2023-01-29T08:55:18.070Z,73.57
2023-01-29T08:57:44.906Z,73.43
2023-01-29T09:00:12.345Z,73.55
2023-01-29T09:02:39.223Z,73.27
2023-01-29T09:05:06.727Z,73.09
2023-01-29T09:07:33.866Z,73.29
2023-01-29T09:10:00.900Z,73.03
2023-01-29T09:12:28.066Z,73.31
2023-01-29T09:14:55.268Z,73.25
2023-01-29T09:17:22.036Z,73.58
2023-01-29T09:19:48.704Z,73.24
2023-01-29T09:22:15.502Z,73.16
2023-01-29T09:24:42.168Z,73.33
2023-01-29T09:27:10.085Z,73.17
2023-01-29T09:29:37.614Z,72.83
2023-01-29T09:32:05.192Z,72.89
2023-01-29T09:34:33.890Z,72.70
2023-01-29T09:37:00.745Z,72.44
2023-01-29T09:39:27.449Z,72.66
2023-01-29T09:42:08.642Z,72.45
2023-01-29T09:45:13.064Z,72.44
2023-01-29T09:47:40.615Z,72.58
2023-01-29T09:50:33.647Z,72.11
2023-01-29T09:53:29.689Z,72.36
2023-01-29T09:56:03.941Z,72.12
2023-01-29T09:58:40.131Z,72.30
2023-01-29T10:01:29.167Z,71.69
2023-01-29T10:04:21.126Z,71.72
2023-01-29T10:06:58.922Z,71.45
2023-01-29T10:09:59.675Z,71.54
2023-01-29T10:12:44.810Z,71.41
2023-01-29T10:15:23.581Z,71.05
2023-01-29T10:18:08.467Z,70.73
2023-01-29T10:21:02.079Z,70.74
2023-01-29T10:23:38.684Z,70.45
2023-01-29T10:26:12.932Z,70.37
2023-01-29T10:28:46.618Z,70.35
2023-01-29T10:31:17.993Z,70.10
2023-01-29T10:34:13.861Z,70.01
2023-01-29T10:36:46.266Z,70.08
2023-01-29T10:39:27.085Z,69.65
2023-01-29T10:41:59.750Z,69.49
2023-01-29T10:44:26.287Z,69.34
2023-01-29T10:47:08.203Z,69.52
2023-01-29T10:49:40.842Z,69.16
2023-01-29T10:52:13.486Z,69.32
2023-01-29T10:55:17.863Z,69.42
2023-01-29T10:57:53.413Z,69.89
2023-01-29T11:00:27.229Z,70.05
2023-01-29T11:02:54.182Z,70.46
2023-01-29T11:05:36.429Z,70.32
2023-01-29T11:08:13.926Z,69.97
2023-01-29T11:11:12.695Z,69.86
2023-01-29T11:13:47.335Z,69.57
2023-01-29T11:16:17.189Z,69.40
2023-01-29T11:18:59.670Z,69.31
2023-01-29T11:21:28.418Z,69.02
2023-01-29T11:24:15.361Z,69.37
2023-01-29T11:26:43.692Z,69.34
2023-01-29T11:29:45.893Z,69.37
2023-01-29T11:32:21.748Z,69.70
2023-01-29T11:35:05.969Z,69.57
2023-01-29T11:37:37.877Z,69.38
2023-01-29T11:40:36.099Z,69.15
2023-01-29T11:43:18.878Z,69.39
2023-01-29T11:45:46.123Z,69.21
2023-01-29T11:48:19.072Z,69.20
2023-01-29T11:50:53.355Z,69.38
2023-01-29T11:53:40.459Z,68.92
2023-01-29T11:56:19.602Z,69.33
2023-01-29T11:58:48.038Z,69.32
2023-01-29T12:01:18.201Z,69.41
2023-01-29T12:03:53.299Z,68.94
2023-01-29T12:06:36.425Z,68.96
2023-01-29T12:09:11.271Z,69.03
2023-01-29T12:12:47.548Z,68.90
2023-01-29T12:15:33.127Z,68.83
2023-01-29T12:18:32.984Z,68.30
2023-01-29T12:21:53.578Z,68.38
2023-01-29T12:28:42.659Z,68.13
2023-01-29T12:38:31.231Z,68.30
2023-01-29T12:41:24.049Z,68.20
2023-01-29T12:43:56.636Z,68.37
2023-01-29T12:46:33.837Z,67.95
2023-01-29T12:49:06.995Z,67.71
2023-01-29T12:51:42.810Z,67.73
2023-01-29T12:54:16.376Z,67.90
2023-01-29T12:56:47.829Z,67.87
2023-01-29T12:59:28.955Z,67.81
2023-01-29T13:02:10.041Z,67.85
2023-01-29T13:04:42.473Z,67.74
2023-01-29T13:07:23.698Z,67.60
2023-01-29T13:09:58.132Z,67.57
2023-01-29T13:12:25.415Z,67.87
2023-01-29T13:15:01.022Z,67.63
2023-01-29T13:17:38.463Z,67.55
2023-01-29T13:20:34.139Z,67.56
2023-01-29T13:23:19.861Z,67.54
2023-01-29T13:25:49.970Z,67.53
2023-01-29T13:28:23.751Z,67.46
2023-01-29T13:31:32.970Z,67.42
2023-01-29T13:34:08.100Z,67.12
2023-01-29T13:36:37.994Z,67.56
2023-01-29T13:39:07.902Z,67.62
2023-01-29T13:41:41.844Z,67.84
2023-01-29T13:44:21.422Z,67.85
2023-01-29T13:47:09.982Z,67.41
2023-01-29T13:49:47.797Z,67.74
2023-01-29T13:52:41.314Z,67.51
2023-01-29T13:55:31.521Z,67.79
2023-01-29T13:58:28.003Z,67.88
2023-01-29T14:00:55.201Z,67.86
2023-01-29T14:03:24.481Z,67.72
2023-01-29T14:05:54.269Z,67.98
2023-01-29T14:08:37.873Z,67.59
2023-01-29T14:11:14.630Z,67.54
2023-01-29T14:13:49.326Z,67.60
2023-01-29T14:16:16.129Z,67.61
2023-01-29T14:18:48.708Z,67.77
2023-01-29T14:21:25.489Z,67.62
2023-01-29T14:23:54.913Z,67.56
2023-01-29T14:26:30.331Z,67.70
2023-01-29T14:29:05.338Z,67.70
2023-01-29T14:31:47.323Z,67.56
2023-01-29T14:34:41.465Z,67.76
2023-01-29T14:37:17.266Z,67.98
2023-01-29T14:39:54.766Z,68.01
2023-01-29T14:42:30.018Z,67.77
2023-01-29T14:45:24.767Z,68.01
2023-01-29T14:47:51.535Z,67.74
2023-01-29T14:50:31.806Z,67.80
2023-01-29T14:53:17.097Z,67.83
2023-01-29T14:55:48.423Z,68.20
2023-01-29T14:58:34.239Z,67.94
2023-01-29T15:01:04.162Z,68.16
2023-01-29T15:03:44.693Z,68.32
2023-01-29T15:06:23.107Z,68.41
2023-01-29T15:08:57.239Z,68.74
2023-01-29T15:11:44.241Z,68.55
2023-01-29T15:14:19.125Z,68.40
2023-01-29T15:17:00.869Z,68.61
2023-01-29T15:19:44.744Z,68.79
2023-01-29T15:22:16.638Z,69.14
2023-01-29T15:24:46.114Z,69.26
2023-01-29T15:27:21.904Z,69.41
2023-01-29T15:30:00.649Z,69.64
2023-01-29T15:32:40.356Z,70.08
2023-01-29T15:35:48.305Z,70.11
2023-01-29T15:38:17.073Z,70.02
2023-01-29T15:41:19.735Z,70.21
2023-01-29T15:43:49.692Z,70.39
2023-01-29T15:46:25.464Z,70.30
2023-01-29T15:48:57.636Z,70.24
2023-01-29T15:51:27.273Z,70.17
2023-01-29T15:54:01.164Z,70.30
2023-01-29T15:56:52.381Z,70.08
2023-01-29T15:59:26.133Z,70.47
2023-01-29T16:01:53.939Z,70.21
2023-01-29T16:04:31.280Z,70.08
2023-01-29T16:07:00.888Z,69.86
2023-01-29T16:09:29.004Z,70.04
2023-01-29T16:11:58.947Z,70.20
2023-01-29T16:14:27.018Z,70.18
2023-01-29T16:16:54.005Z,70.04
2023-01-29T16:19:29.590Z,70.13
2023-01-29T16:22:05.435Z,70.49
2023-01-29T16:24:36.424Z,70.34
2023-01-29T16:27:13.967Z,70.45
2023-01-29T16:29:48.430Z,70.57
2023-01-29T16:36:24.191Z,70.42
2023-01-29T16:39:21.613Z,70.24
2023-01-29T16:42:12.495Z,70.21
2023-01-29T16:44:47.410Z,70.28
2023-01-29T16:47:23.937Z,69.98
2023-01-29T16:49:53.467Z,70.45
2023-01-29T16:52:26.103Z,70.35
2023-01-29T16:55:13.498Z,70.18
2023-01-29T16:57:41.102Z,70.21
2023-01-29T17:00:19.097Z,70.08
2023-01-29T17:02:46.389Z,70.14
2023-01-29T17:05:27.137Z,70.11
2023-01-29T17:07:56.796Z,69.95
2023-01-29T17:10:24.916Z,70.16
2023-01-29T17:12:54.787Z,70.22
2023-01-29T17:15:43.505Z,69.86
2023-01-29T17:18:30.829Z,70.03
2023-01-29T17:20:57.556Z,70.18
2023-01-29T17:23:24.276Z,69.95
2023-01-29T17:25:51.862Z,70.08
2023-01-29T17:28:18.808Z,69.72
2023-01-29T17:30:56.686Z,69.99
2023-01-29T17:33:32.599Z,69.78
2023-01-29T17:35:59.362Z,69.87
2023-01-29T17:38:26.886Z,69.75
2023-01-29T17:41:02.363Z,69.81
2023-01-29T17:43:29.069Z,69.59
2023-01-29T17:45:55.850Z,69.86
2023-01-29T17:48:24.062Z,69.59
2023-01-29T17:50:53.606Z,69.38
2023-01-29T17:53:21.952Z,69.20
2023-01-29T17:55:49.276Z,69.26
2023-01-29T17:58:23.758Z,69.21
2023-01-29T18:00:51.330Z,69.00
2023-01-29T18:03:18.264Z,69.05
2023-01-29T18:05:47.671Z,69.21
2023-01-29T18:08:22.244Z,69.02
2023-01-29T18:10:48.954Z,69.05
2023-01-29T18:13:15.627Z,68.79
2023-01-29T18:15:42.368Z,68.92
2023-01-29T18:18:14.187Z,68.86
2023-01-29T18:20:40.987Z,68.88
2023-01-29T18:23:08.998Z,68.69
2023-01-29T18:25:35.824Z,68.81
2023-01-29T18:28:02.925Z,68.97
2023-01-29T18:30:29.768Z,69.00
2023-01-29T18:32:57.591Z,69.14
2023-01-29T18:35:26.447Z,68.88
2023-01-29T18:37:53.251Z,68.82
2023-01-29T18:40:20.105Z,68.71
2023-01-29T18:42:47.417Z,68.96
2023-01-29T18:45:15.777Z,68.65
2023-01-29T18:47:42.886Z,68.76
2023-01-29T18:50:11.552Z,68.95
2023-01-29T18:52:38.220Z,68.91
2023-01-29T18:55:05.237Z,68.93
2023-01-29T18:58:27.382Z,68.89
2023-01-29T19:00:19.536Z,68.75
2023-01-29T19:02:46.380Z,68.63
2023-01-29T19:05:13.122Z,68.44
2023-01-29T19:07:39.876Z,68.46
2023-01-29T19:10:09.439Z,68.25
2023-01-29T19:12:36.146Z,68.34
2023-01-29T19:15:03.109Z,68.67
2023-01-29T19:17:29.790Z,68.20
2023-01-29T19:20:02.027Z,68.32
2023-01-29T19:22:29.535Z,68.51
2023-01-29T19:24:56.251Z,68.46
2023-01-29T19:27:23.092Z,68.06
2023-01-29T19:29:51.252Z,68.12
2023-01-29T19:32:18.561Z,68.18
2023-01-29T19:34:45.343Z,68.10
2023-01-29T19:37:11.959Z,68.19
2023-01-29T19:39:38.646Z,67.87
2023-01-29T19:42:05.285Z,67.75
2023-01-29T19:44:32.186Z,67.86
2023-01-29T19:46:58.818Z,68.06
2023-01-29T19:49:25.994Z,68.00
2023-01-29T19:51:52.765Z,67.89
2023-01-29T19:54:21.445Z,67.73
2023-01-29T19:56:48.023Z,67.52
2023-01-29T19:59:14.836Z,67.47
2023-01-29T20:01:41.777Z,67.81
2023-01-29T20:04:08.395Z,67.79
2023-01-29T20:06:35.600Z,67.68
2023-01-29T20:09:02.978Z,67.92
2023-01-29T20:11:30.912Z,67.99
2023-01-29T20:13:58.869Z,67.81
2023-01-29T20:16:25.975Z,68.05
2023-01-29T20:18:52.781Z,68.01
2023-01-29T20:21:22.158Z,67.84
2023-01-29T20:26:29.607Z,68.12
2023-01-29T20:28:56.428Z,68.40
2023-01-29T20:31:23.071Z,68.23
2023-01-29T20:33:49.993Z,68.18
2023-01-29T20:36:16.644Z,68.16
2023-01-29T20:38:43.313Z,68.26
2023-01-29T20:41:14.312Z,68.33
2023-01-29T20:43:42.075Z,68.12
2023-01-29T20:46:09.610Z,68.20
2023-01-29T20:48:37.212Z,68.15
2023-01-29T20:51:09.905Z,68.30
2023-01-29T20:53:37.086Z,68.13
2023-01-29T20:56:04.760Z,67.93
2023-01-29T20:58:32.576Z,68.24
2023-01-29T21:00:59.966Z,67.96
2023-01-29T21:03:26.801Z,67.99
2023-01-29T21:05:54.443Z,68.46
2023-01-29T21:08:21.110Z,68.12
2023-01-29T21:10:49.780Z,68.04
2023-01-29T21:13:16.387Z,68.17
2023-01-29T21:15:43.077Z,67.96
2023-01-29T21:18:10.276Z,68.39
2023-01-29T21:20:37.122Z,68.36
2023-01-29T21:23:06.954Z,68.30
2023-01-29T21:25:34.138Z,68.04
2023-01-29T21:28:01.189Z,68.09
2023-01-29T21:30:28.219Z,67.95
2023-01-29T21:32:55.032Z,67.79
2023-01-29T21:35:22.312Z,67.80
2023-01-29T21:37:49.039Z,67.98
2023-01-29T21:40:16.758Z,67.54
2023-01-29T21:43:02.303Z,67.45
2023-01-29T21:45:29.260Z,67.42
2023-01-29T21:47:55.899Z,67.47
2023-01-29T21:50:22.722Z,67.23
2023-01-29T21:52:49.643Z,67.51
2023-01-29T21:55:16.336Z,67.25
2023-01-29T21:57:43.154Z,67.30
2023-01-29T22:00:12.101Z,67.18
2023-01-29T22:02:39.363Z,67.35
2023-01-29T22:05:18.336Z,66.96
2023-01-29T22:07:46.385Z,66.96
2023-01-29T22:10:13.302Z,67.31
2023-01-29T22:12:40.069Z,67.17
2023-01-29T22:15:07.794Z,67.36
2023-01-29T22:17:35.354Z,67.22
2023-01-29T22:20:02.656Z,67.25
2023-01-29T22:22:29.599Z,67.11
2023-01-29T22:24:58.339Z,66.97
2023-01-29T22:27:25.082Z,67.03
2023-01-29T22:29:52.142Z,66.99
2023-01-29T22:32:18.749Z,66.74
2023-01-29T22:34:45.622Z,67.07
2023-01-29T22:37:12.415Z,66.66
2023-01-29T22:39:39.099Z,66.66
2023-01-29T22:42:05.763Z,66.88
2023-01-29T22:44:32.452Z,66.95
2023-01-29T22:46:59.095Z,66.89
2023-01-29T22:49:26.464Z,66.57
2023-01-29T22:52:10.052Z,66.49
2023-01-29T22:54:42.320Z,66.57
2023-01-29T22:57:11.452Z,66.70
2023-01-29T22:59:38.154Z,66.62
2023-01-29T23:02:05.095Z,66.53
2023-01-29T23:04:32.096Z,66.69
2023-01-29T23:06:59.080Z,66.89
2023-01-29T23:09:25.787Z,66.99
2023-01-29T23:11:52.643Z,66.75
2023-01-29T23:14:19.458Z,67.03
2023-01-29T23:16:46.077Z,66.62
2023-01-29T23:19:12.967Z,66.90
2023-01-29T23:21:39.852Z,66.61
2023-01-29T23:24:30.506Z,67.07
2023-01-29T23:27:23.615Z,66.84
2023-01-29T23:30:05.249Z,66.71
2023-01-29T23:32:52.147Z,66.57
2023-01-29T23:35:32.797Z,66.83
2023-01-29T23:38:03.597Z,66.62
2023-01-29T23:40:49.561Z,66.40
2023-01-29T23:43:17.576Z,66.50
2023-01-29T23:45:55.429Z,66.50
2023-01-29T23:48:45.897Z,66.63
2023-01-29T23:51:24.778Z,66.74
2023-01-29T23:54:08.456Z,66.46
2023-01-29T23:56:50.645Z,66.48
2023-01-29T23:59:34.014Z,66.59
